Terminal Aerodrome Forecast
Issued by NWS

Home | Current Version | Previous Version | Text Only | Print | Product List | Glossary Off
Versions: 1 2 3 4 5 6 7 8 9 10 11 12 13

096
FTUS43 KICT 212320
TAFSLN
TAF
KSLN 212320Z 2200/2224 16013G20KT P6SM SCT250
     FM220100 17010KT P6SM FEW250
     FM221000 18009KT P6SM FEW250 WS020/20035KT
     FM221700 19014G22KT P6SM FEW090 SCT200=

USA.gov is the U.S. government's official web portal to all federal, state and local government web resources and services.